sensor_id;sensor_type;location;lat;lon;timestamp;P1;durP1;ratioP1;P2;durP2;ratioP2
17997;SDS011;9124;48.144;17.098;2022-07-29T00:00:01;5.15;;;4.65;;
17997;SDS011;9124;48.144;17.098;2022-07-29T00:03:40;4.90;;;4.30;;
17997;SDS011;9124;48.144;17.098;2022-07-29T00:07:17;4.18;;;3.65;;
17997;SDS011;9124;48.144;17.098;2022-07-29T00:10:54;4.65;;;4.35;;
17997;SDS011;9124;48.144;17.098;2022-07-29T00:14:31;5.70;;;3.95;;
17997;SDS011;9124;48.144;17.098;2022-07-29T00:18:08;3.78;;;3.50;;
17997;SDS011;9124;48.144;17.098;2022-07-29T00:21:44;4.88;;;4.00;;
17997;SDS011;9124;48.144;17.098;2022-07-29T00:25:21;7.85;;;4.10;;
17997;SDS011;9124;48.144;17.098;2022-07-29T00:28:59;3.70;;;3.40;;
17997;SDS011;9124;48.144;17.098;2022-07-29T00:32:37;4.70;;;3.80;;
17997;SDS011;9124;48.144;17.098;2022-07-29T00:36:14;6.30;;;3.47;;
17997;SDS011;9124;48.144;17.098;2022-07-29T00:39:51;4.50;;;4.03;;
17997;SDS011;9124;48.144;17.098;2022-07-29T00:43:27;4.10;;;3.72;;
17997;SDS011;9124;48.144;17.098;2022-07-29T00:47:04;4.75;;;4.35;;
17997;SDS011;9124;48.144;17.098;2022-07-29T00:50:42;5.03;;;3.92;;
17997;SDS011;9124;48.144;17.098;2022-07-29T00:54:19;4.13;;;3.78;;
17997;SDS011;9124;48.144;17.098;2022-07-29T00:57:55;6.30;;;4.18;;
17997;SDS011;9124;48.144;17.098;2022-07-29T01:01:34;5.78;;;4.05;;
17997;SDS011;9124;48.144;17.098;2022-07-29T01:05:10;5.25;;;3.90;;
17997;SDS011;9124;48.144;17.098;2022-07-29T01:08:48;4.60;;;4.25;;
17997;SDS011;9124;48.144;17.098;2022-07-29T01:12:27;5.03;;;4.45;;
17997;SDS011;9124;48.144;17.098;2022-07-29T01:16:10;5.22;;;4.72;;
17997;SDS011;9124;48.144;17.098;2022-07-29T01:31:55;6.10;;;4.55;;
17997;SDS011;9124;48.144;17.098;2022-07-29T01:35:44;7.88;;;4.25;;
17997;SDS011;9124;48.144;17.098;2022-07-29T01:43:09;5.22;;;4.72;;
17997;SDS011;9124;48.144;17.098;2022-07-29T01:46:54;4.03;;;3.83;;
17997;SDS011;9124;48.144;17.098;2022-07-29T01:50:36;4.78;;;4.03;;
17997;SDS011;9124;48.144;17.098;2022-07-29T01:54:55;4.75;;;4.38;;
17997;SDS011;9124;48.144;17.098;2022-07-29T01:58:34;5.18;;;4.70;;
17997;SDS011;9124;48.144;17.098;2022-07-29T02:02:15;6.22;;;5.20;;
17997;SDS011;9124;48.144;17.098;2022-07-29T02:05:53;4.95;;;4.60;;
17997;SDS011;9124;48.144;17.098;2022-07-29T02:09:33;7.30;;;4.75;;
17997;SDS011;9124;48.144;17.098;2022-07-29T02:13:12;4.40;;;4.00;;
17997;SDS011;9124;48.144;17.098;2022-07-29T02:16:52;4.40;;;3.70;;
17997;SDS011;9124;48.144;17.098;2022-07-29T02:20:31;5.00;;;4.15;;
17997;SDS011;9124;48.144;17.098;2022-07-29T02:24:11;4.93;;;4.28;;
17997;SDS011;9124;48.144;17.098;2022-07-29T02:27:50;5.40;;;4.15;;
17997;SDS011;9124;48.144;17.098;2022-07-29T02:31:30;4.47;;;4.05;;
17997;SDS011;9124;48.144;17.098;2022-07-29T02:35:09;4.45;;;4.15;;
17997;SDS011;9124;48.144;17.098;2022-07-29T02:38:49;7.00;;;4.10;;
17997;SDS011;9124;48.144;17.098;2022-07-29T02:42:27;3.92;;;3.53;;
17997;SDS011;9124;48.144;17.098;2022-07-29T02:46:05;4.05;;;3.75;;
17997;SDS011;9124;48.144;17.098;2022-07-29T02:50:06;5.35;;;4.13;;
17997;SDS011;9124;48.144;17.098;2022-07-29T02:53:44;7.13;;;3.85;;
17997;SDS011;9124;48.144;17.098;2022-07-29T02:57:30;4.20;;;3.90;;
17997;SDS011;9124;48.144;17.098;2022-07-29T03:01:11;6.95;;;3.72;;
17997;SDS011;9124;48.144;17.098;2022-07-29T03:04:56;4.97;;;3.92;;
17997;SDS011;9124;48.144;17.098;2022-07-29T03:08:36;4.30;;;4.00;;
17997;SDS011;9124;48.144;17.098;2022-07-29T03:12:13;5.10;;;4.47;;
17997;SDS011;9124;48.144;17.098;2022-07-29T03:15:50;4.45;;;4.10;;
17997;SDS011;9124;48.144;17.098;2022-07-29T03:19:29;4.90;;;4.53;;
17997;SDS011;9124;48.144;17.098;2022-07-29T03:23:08;5.47;;;5.18;;
17997;SDS011;9124;48.144;17.098;2022-07-29T03:26:44;6.00;;;5.57;;
17997;SDS011;9124;48.144;17.098;2022-07-29T03:30:21;7.22;;;6.68;;
17997;SDS011;9124;48.144;17.098;2022-07-29T03:33:58;8.02;;;7.43;;
17997;SDS011;9124;48.144;17.098;2022-07-29T03:37:35;8.32;;;7.82;;
17997;SDS011;9124;48.144;17.098;2022-07-29T03:41:12;9.20;;;8.45;;
17997;SDS011;9124;48.144;17.098;2022-07-29T03:44:50;9.63;;;8.93;;
17997;SDS011;9124;48.144;17.098;2022-07-29T03:48:29;9.68;;;8.73;;
17997;SDS011;9124;48.144;17.098;2022-07-29T03:52:09;10.00;;;9.20;;
17997;SDS011;9124;48.144;17.098;2022-07-29T03:55:47;7.70;;;7.20;;
17997;SDS011;9124;48.144;17.098;2022-07-29T03:59:28;6.75;;;6.13;;
17997;SDS011;9124;48.144;17.098;2022-07-29T04:03:08;6.25;;;5.70;;
17997;SDS011;9124;48.144;17.098;2022-07-29T04:06:46;6.15;;;5.75;;
17997;SDS011;9124;48.144;17.098;2022-07-29T04:10:23;6.85;;;6.47;;
17997;SDS011;9124;48.144;17.098;2022-07-29T04:14:00;7.10;;;6.50;;
17997;SDS011;9124;48.144;17.098;2022-07-29T04:17:37;6.45;;;5.93;;
17997;SDS011;9124;48.144;17.098;2022-07-29T04:21:13;6.75;;;6.13;;
17997;SDS011;9124;48.144;17.098;2022-07-29T04:24:50;6.55;;;6.10;;
17997;SDS011;9124;48.144;17.098;2022-07-29T04:28:27;6.93;;;6.50;;
17997;SDS011;9124;48.144;17.098;2022-07-29T04:32:04;6.60;;;5.43;;
17997;SDS011;9124;48.144;17.098;2022-07-29T04:35:41;10.65;;;5.85;;
17997;SDS011;9124;48.144;17.098;2022-07-29T04:39:18;5.70;;;5.30;;
17997;SDS011;9124;48.144;17.098;2022-07-29T04:42:55;5.93;;;5.57;;
17997;SDS011;9124;48.144;17.098;2022-07-29T04:46:32;7.60;;;6.85;;
17997;SDS011;9124;48.144;17.098;2022-07-29T04:50:09;6.70;;;6.07;;
17997;SDS011;9124;48.144;17.098;2022-07-29T04:53:46;5.90;;;5.50;;
17997;SDS011;9124;48.144;17.098;2022-07-29T04:57:23;5.80;;;5.35;;
17997;SDS011;9124;48.144;17.098;2022-07-29T05:01:00;5.53;;;4.88;;
17997;SDS011;9124;48.144;17.098;2022-07-29T05:04:37;5.70;;;5.20;;
17997;SDS011;9124;48.144;17.098;2022-07-29T05:08:14;5.10;;;4.70;;
17997;SDS011;9124;48.144;17.098;2022-07-29T05:11:50;5.03;;;4.30;;
17997;SDS011;9124;48.144;17.098;2022-07-29T05:15:27;4.65;;;4.20;;
17997;SDS011;9124;48.144;17.098;2022-07-29T05:19:04;3.95;;;3.67;;
17997;SDS011;9124;48.144;17.098;2022-07-29T05:22:41;5.47;;;3.63;;
17997;SDS011;9124;48.144;17.098;2022-07-29T05:26:17;3.85;;;3.55;;
17997;SDS011;9124;48.144;17.098;2022-07-29T05:29:55;8.57;;;3.95;;
17997;SDS011;9124;48.144;17.098;2022-07-29T05:33:32;9.48;;;4.25;;
17997;SDS011;9124;48.144;17.098;2022-07-29T05:37:09;6.68;;;4.72;;
17997;SDS011;9124;48.144;17.098;2022-07-29T05:40:45;5.38;;;4.20;;
17997;SDS011;9124;48.144;17.098;2022-07-29T05:44:23;4.75;;;4.30;;
17997;SDS011;9124;48.144;17.098;2022-07-29T05:47:59;7.25;;;3.92;;
17997;SDS011;9124;48.144;17.098;2022-07-29T05:51:36;6.28;;;4.40;;
17997;SDS011;9124;48.144;17.098;2022-07-29T05:55:13;5.07;;;3.85;;
17997;SDS011;9124;48.144;17.098;2022-07-29T05:58:50;3.80;;;3.60;;
17997;SDS011;9124;48.144;17.098;2022-07-29T06:02:27;7.63;;;4.15;;
17997;SDS011;9124;48.144;17.098;2022-07-29T06:06:03;3.92;;;3.70;;
17997;SDS011;9124;48.144;17.098;2022-07-29T06:09:42;6.72;;;3.92;;
17997;SDS011;9124;48.144;17.098;2022-07-29T06:13:18;9.18;;;4.38;;
17997;SDS011;9124;48.144;17.098;2022-07-29T06:16:55;7.38;;;4.32;;
17997;SDS011;9124;48.144;17.098;2022-07-29T06:25:11;7.22;;;4.45;;
17997;SDS011;9124;48.144;17.098;2022-07-29T06:28:48;4.38;;;4.05;;
17997;SDS011;9124;48.144;17.098;2022-07-29T06:32:25;5.32;;;3.90;;
17997;SDS011;9124;48.144;17.098;2022-07-29T06:36:05;3.88;;;3.55;;
17997;SDS011;9124;48.144;17.098;2022-07-29T06:39:42;4.40;;;4.03;;
17997;SDS011;9124;48.144;17.098;2022-07-29T06:43:19;13.98;;;3.97;;
17997;SDS011;9124;48.144;17.098;2022-07-29T06:46:55;9.60;;;4.38;;
17997;SDS011;9124;48.144;17.098;2022-07-29T06:50:33;4.80;;;4.35;;
17997;SDS011;9124;48.144;17.098;2022-07-29T06:54:09;4.22;;;3.83;;
17997;SDS011;9124;48.144;17.098;2022-07-29T06:57:46;4.97;;;3.92;;
17997;SDS011;9124;48.144;17.098;2022-07-29T07:01:23;5.03;;;3.67;;
17997;SDS011;9124;48.144;17.098;2022-07-29T07:05:00;6.93;;;4.05;;
17997;SDS011;9124;48.144;17.098;2022-07-29T07:08:36;8.52;;;4.10;;
17997;SDS011;9124;48.144;17.098;2022-07-29T07:12:13;8.02;;;4.43;;
17997;SDS011;9124;48.144;17.098;2022-07-29T07:15:50;3.83;;;3.55;;
17997;SDS011;9124;48.144;17.098;2022-07-29T07:19:28;5.80;;;4.30;;
17997;SDS011;9124;48.144;17.098;2022-07-29T07:23:04;6.10;;;4.18;;
17997;SDS011;9124;48.144;17.098;2022-07-29T07:26:41;3.60;;;3.20;;
17997;SDS011;9124;48.144;17.098;2022-07-29T07:30:18;7.53;;;4.30;;
17997;SDS011;9124;48.144;17.098;2022-07-29T07:33:55;5.25;;;3.53;;
17997;SDS011;9124;48.144;17.098;2022-07-29T07:37:31;5.00;;;3.33;;
17997;SDS011;9124;48.144;17.098;2022-07-29T07:41:08;5.20;;;3.10;;
17997;SDS011;9124;48.144;17.098;2022-07-29T07:44:45;11.07;;;3.53;;
17997;SDS011;9124;48.144;17.098;2022-07-29T07:48:24;4.32;;;3.83;;
17997;SDS011;9124;48.144;17.098;2022-07-29T07:52:00;4.63;;;3.83;;
17997;SDS011;9124;48.144;17.098;2022-07-29T07:55:39;7.07;;;3.50;;
17997;SDS011;9124;48.144;17.098;2022-07-29T07:59:17;7.07;;;3.47;;
17997;SDS011;9124;48.144;17.098;2022-07-29T08:02:54;5.30;;;3.90;;
17997;SDS011;9124;48.144;17.098;2022-07-29T08:06:30;9.45;;;4.00;;
17997;SDS011;9124;48.144;17.098;2022-07-29T08:10:08;5.57;;;3.63;;
17997;SDS011;9124;48.144;17.098;2022-07-29T08:13:44;6.28;;;3.58;;
17997;SDS011;9124;48.144;17.098;2022-07-29T08:17:25;7.50;;;3.70;;
17997;SDS011;9124;48.144;17.098;2022-07-29T08:21:30;9.13;;;3.70;;
17997;SDS011;9124;48.144;17.098;2022-07-29T08:25:10;4.35;;;3.67;;
17997;SDS011;9124;48.144;17.098;2022-07-29T08:28:46;7.47;;;4.30;;
17997;SDS011;9124;48.144;17.098;2022-07-29T08:32:29;5.13;;;3.60;;
17997;SDS011;9124;48.144;17.098;2022-07-29T08:36:13;5.50;;;3.58;;
17997;SDS011;9124;48.144;17.098;2022-07-29T08:39:50;4.18;;;3.83;;
17997;SDS011;9124;48.144;17.098;2022-07-29T08:43:27;4.38;;;4.07;;
17997;SDS011;9124;48.144;17.098;2022-07-29T08:47:04;10.27;;;3.30;;
17997;SDS011;9124;48.144;17.098;2022-07-29T08:50:42;5.90;;;3.67;;
17997;SDS011;9124;48.144;17.098;2022-07-29T08:54:21;6.93;;;3.95;;
17997;SDS011;9124;48.144;17.098;2022-07-29T08:57:59;8.13;;;3.85;;
17997;SDS011;9124;48.144;17.098;2022-07-29T09:01:37;3.42;;;3.17;;
17997;SDS011;9124;48.144;17.098;2022-07-29T09:05:15;7.72;;;3.83;;
17997;SDS011;9124;48.144;17.098;2022-07-29T09:08:52;7.38;;;3.55;;
17997;SDS011;9124;48.144;17.098;2022-07-29T09:12:30;6.13;;;3.75;;
17997;SDS011;9124;48.144;17.098;2022-07-29T09:16:07;3.28;;;3.00;;
17997;SDS011;9124;48.144;17.098;2022-07-29T09:19:44;3.63;;;3.33;;
17997;SDS011;9124;48.144;17.098;2022-07-29T09:23:21;4.88;;;3.17;;
17997;SDS011;9124;48.144;17.098;2022-07-29T09:26:59;3.63;;;2.90;;
17997;SDS011;9124;48.144;17.098;2022-07-29T09:30:41;5.45;;;3.70;;
17997;SDS011;9124;48.144;17.098;2022-07-29T09:34:29;9.45;;;4.28;;
17997;SDS011;9124;48.144;17.098;2022-07-29T09:38:10;2.70;;;2.50;;
17997;SDS011;9124;48.144;17.098;2022-07-29T09:41:50;3.30;;;2.80;;
17997;SDS011;9124;48.144;17.098;2022-07-29T09:45:30;5.45;;;2.67;;
17997;SDS011;9124;48.144;17.098;2022-07-29T09:49:09;6.57;;;3.10;;
17997;SDS011;9124;48.144;17.098;2022-07-29T09:52:48;5.30;;;3.03;;
17997;SDS011;9124;48.144;17.098;2022-07-29T09:56:41;9.00;;;3.00;;
17997;SDS011;9124;48.144;17.098;2022-07-29T10:00:19;4.30;;;3.53;;
17997;SDS011;9124;48.144;17.098;2022-07-29T10:03:58;6.97;;;3.75;;
17997;SDS011;9124;48.144;17.098;2022-07-29T10:07:45;4.40;;;3.25;;
17997;SDS011;9124;48.144;17.098;2022-07-29T10:11:25;3.67;;;3.38;;
17997;SDS011;9124;48.144;17.098;2022-07-29T10:15:03;3.17;;;2.97;;
17997;SDS011;9124;48.144;17.098;2022-07-29T10:18:43;3.42;;;2.80;;
17997;SDS011;9124;48.144;17.098;2022-07-29T10:22:23;6.60;;;2.90;;
17997;SDS011;9124;48.144;17.098;2022-07-29T10:26:00;3.28;;;3.08;;
17997;SDS011;9124;48.144;17.098;2022-07-29T10:29:37;5.07;;;2.50;;
17997;SDS011;9124;48.144;17.098;2022-07-29T10:37:02;10.00;;;3.17;;
17997;SDS011;9124;48.144;17.098;2022-07-29T10:45:02;9.60;;;3.25;;
17997;SDS011;9124;48.144;17.098;2022-07-29T10:52:54;3.65;;;3.40;;
17997;SDS011;9124;48.144;17.098;2022-07-29T10:56:33;8.45;;;3.03;;
17997;SDS011;9124;48.144;17.098;2022-07-29T11:03:51;7.28;;;3.42;;
17997;SDS011;9124;48.144;17.098;2022-07-29T11:07:32;7.70;;;3.35;;
17997;SDS011;9124;48.144;17.098;2022-07-29T11:14:56;9.95;;;3.40;;
17997;SDS011;9124;48.144;17.098;2022-07-29T11:18:34;4.05;;;3.25;;
17997;SDS011;9124;48.144;17.098;2022-07-29T11:22:12;4.28;;;3.67;;
17997;SDS011;9124;48.144;17.098;2022-07-29T11:29:54;4.93;;;3.40;;
17997;SDS011;9124;48.144;17.098;2022-07-29T11:33:33;13.48;;;3.05;;
17997;SDS011;9124;48.144;17.098;2022-07-29T11:41:18;3.42;;;3.13;;
17997;SDS011;9124;48.144;17.098;2022-07-29T11:45:08;6.75;;;3.33;;
17997;SDS011;9124;48.144;17.098;2022-07-29T11:48:45;9.73;;;3.40;;
17997;SDS011;9124;48.144;17.098;2022-07-29T11:52:23;3.60;;;3.10;;
17997;SDS011;9124;48.144;17.098;2022-07-29T11:56:08;3.53;;;3.33;;
17997;SDS011;9124;48.144;17.098;2022-07-29T11:59:46;9.60;;;3.30;;
17997;SDS011;9124;48.144;17.098;2022-07-29T12:03:24;6.50;;;3.65;;
17997;SDS011;9124;48.144;17.098;2022-07-29T12:07:03;3.75;;;3.28;;
17997;SDS011;9124;48.144;17.098;2022-07-29T12:10:40;5.72;;;3.40;;
17997;SDS011;9124;48.144;17.098;2022-07-29T12:14:31;8.52;;;3.72;;
17997;SDS011;9124;48.144;17.098;2022-07-29T12:18:09;4.70;;;3.63;;
17997;SDS011;9124;48.144;17.098;2022-07-29T12:21:51;4.07;;;2.80;;
17997;SDS011;9124;48.144;17.098;2022-07-29T12:25:32;7.57;;;3.08;;
17997;SDS011;9124;48.144;17.098;2022-07-29T12:29:14;3.38;;;2.78;;
17997;SDS011;9124;48.144;17.098;2022-07-29T12:32:52;4.13;;;2.60;;
17997;SDS011;9124;48.144;17.098;2022-07-29T12:36:30;5.32;;;2.67;;
17997;SDS011;9124;48.144;17.098;2022-07-29T12:40:09;5.80;;;2.80;;
17997;SDS011;9124;48.144;17.098;2022-07-29T12:43:53;7.97;;;2.92;;
17997;SDS011;9124;48.144;17.098;2022-07-29T12:47:30;5.60;;;3.00;;
17997;SDS011;9124;48.144;17.098;2022-07-29T12:51:08;3.33;;;3.03;;
17997;SDS011;9124;48.144;17.098;2022-07-29T12:54:47;4.15;;;3.00;;
17997;SDS011;9124;48.144;17.098;2022-07-29T12:58:28;6.13;;;3.22;;
17997;SDS011;9124;48.144;17.098;2022-07-29T13:02:22;6.15;;;2.80;;
17997;SDS011;9124;48.144;17.098;2022-07-29T13:05:59;4.40;;;2.97;;
17997;SDS011;9124;48.144;17.098;2022-07-29T13:09:40;3.72;;;3.42;;
17997;SDS011;9124;48.144;17.098;2022-07-29T13:13:24;5.35;;;2.72;;
17997;SDS011;9124;48.144;17.098;2022-07-29T13:17:08;3.55;;;3.05;;
17997;SDS011;9124;48.144;17.098;2022-07-29T13:20:45;3.88;;;2.88;;
17997;SDS011;9124;48.144;17.098;2022-07-29T13:24:22;4.18;;;3.00;;
17997;SDS011;9124;48.144;17.098;2022-07-29T13:27:59;3.10;;;2.80;;
17997;SDS011;9124;48.144;17.098;2022-07-29T13:31:36;9.13;;;3.05;;
17997;SDS011;9124;48.144;17.098;2022-07-29T13:35:13;4.20;;;2.63;;
17997;SDS011;9124;48.144;17.098;2022-07-29T13:38:50;4.53;;;2.78;;
17997;SDS011;9124;48.144;17.098;2022-07-29T13:42:26;2.75;;;2.55;;
17997;SDS011;9124;48.144;17.098;2022-07-29T13:46:03;3.47;;;3.17;;
17997;SDS011;9124;48.144;17.098;2022-07-29T13:49:40;5.40;;;2.97;;
17997;SDS011;9124;48.144;17.098;2022-07-29T13:53:17;3.22;;;2.83;;
17997;SDS011;9124;48.144;17.098;2022-07-29T13:56:54;2.75;;;2.55;;
17997;SDS011;9124;48.144;17.098;2022-07-29T14:00:30;4.32;;;2.80;;
17997;SDS011;9124;48.144;17.098;2022-07-29T14:04:08;6.68;;;2.55;;
17997;SDS011;9124;48.144;17.098;2022-07-29T14:07:45;3.47;;;3.17;;
17997;SDS011;9124;48.144;17.098;2022-07-29T14:11:22;3.38;;;3.10;;
17997;SDS011;9124;48.144;17.098;2022-07-29T14:14:59;6.00;;;3.17;;
17997;SDS011;9124;48.144;17.098;2022-07-29T14:18:35;4.25;;;3.05;;
17997;SDS011;9124;48.144;17.098;2022-07-29T14:22:12;3.88;;;2.80;;
17997;SDS011;9124;48.144;17.098;2022-07-29T14:25:49;2.90;;;2.60;;
17997;SDS011;9124;48.144;17.098;2022-07-29T14:29:27;2.72;;;2.58;;
17997;SDS011;9124;48.144;17.098;2022-07-29T14:33:04;3.45;;;3.15;;
17997;SDS011;9124;48.144;17.098;2022-07-29T14:36:41;4.30;;;2.65;;
17997;SDS011;9124;48.144;17.098;2022-07-29T14:40:18;4.78;;;3.13;;
17997;SDS011;9124;48.144;17.098;2022-07-29T14:43:55;3.70;;;2.80;;
17997;SDS011;9124;48.144;17.098;2022-07-29T14:47:32;5.30;;;2.70;;
17997;SDS011;9124;48.144;17.098;2022-07-29T14:51:08;3.13;;;2.88;;
17997;SDS011;9124;48.144;17.098;2022-07-29T14:54:46;6.80;;;3.22;;
17997;SDS011;9124;48.144;17.098;2022-07-29T14:58:23;3.42;;;3.13;;
17997;SDS011;9124;48.144;17.098;2022-07-29T15:01:59;9.65;;;3.45;;
17997;SDS011;9124;48.144;17.098;2022-07-29T15:05:36;5.10;;;2.88;;
17997;SDS011;9124;48.144;17.098;2022-07-29T15:09:13;6.38;;;3.35;;
17997;SDS011;9124;48.144;17.098;2022-07-29T15:12:50;18.63;;;4.20;;
17997;SDS011;9124;48.144;17.098;2022-07-29T15:16:27;12.95;;;4.13;;
17997;SDS011;9124;48.144;17.098;2022-07-29T15:20:04;6.45;;;4.40;;
17997;SDS011;9124;48.144;17.098;2022-07-29T15:23:41;8.80;;;4.30;;
17997;SDS011;9124;48.144;17.098;2022-07-29T15:27:18;8.50;;;4.15;;
17997;SDS011;9124;48.144;17.098;2022-07-29T15:30:55;7.20;;;4.82;;
17997;SDS011;9124;48.144;17.098;2022-07-29T15:34:32;9.73;;;3.95;;
17997;SDS011;9124;48.144;17.098;2022-07-29T15:38:10;6.82;;;3.80;;
17997;SDS011;9124;48.144;17.098;2022-07-29T15:41:46;7.28;;;4.55;;
17997;SDS011;9124;48.144;17.098;2022-07-29T15:45:24;7.88;;;4.30;;
17997;SDS011;9124;48.144;17.098;2022-07-29T15:49:00;8.73;;;4.70;;
17997;SDS011;9124;48.144;17.098;2022-07-29T15:52:38;6.60;;;4.43;;
17997;SDS011;9124;48.144;17.098;2022-07-29T15:56:15;9.70;;;4.55;;
17997;SDS011;9124;48.144;17.098;2022-07-29T15:59:53;5.70;;;5.05;;
17997;SDS011;9124;48.144;17.098;2022-07-29T16:03:29;6.28;;;4.97;;
17997;SDS011;9124;48.144;17.098;2022-07-29T16:07:06;5.60;;;5.10;;
17997;SDS011;9124;48.144;17.098;2022-07-29T16:10:43;6.03;;;5.40;;
17997;SDS011;9124;48.144;17.098;2022-07-29T16:14:21;6.35;;;5.75;;
17997;SDS011;9124;48.144;17.098;2022-07-29T16:17:57;6.90;;;6.20;;
17997;SDS011;9124;48.144;17.098;2022-07-29T16:21:35;6.50;;;5.90;;
17997;SDS011;9124;48.144;17.098;2022-07-29T16:25:11;11.43;;;5.70;;
17997;SDS011;9124;48.144;17.098;2022-07-29T16:28:48;6.45;;;5.95;;
17997;SDS011;9124;48.144;17.098;2022-07-29T16:32:25;6.28;;;5.82;;
17997;SDS011;9124;48.144;17.098;2022-07-29T16:36:02;7.13;;;5.78;;
17997;SDS011;9124;48.144;17.098;2022-07-29T16:39:39;7.07;;;6.00;;
17997;SDS011;9124;48.144;17.098;2022-07-29T16:43:16;7.57;;;5.07;;
17997;SDS011;9124;48.144;17.098;2022-07-29T16:46:53;8.23;;;6.60;;
17997;SDS011;9124;48.144;17.098;2022-07-29T16:50:30;6.28;;;5.72;;
17997;SDS011;9124;48.144;17.098;2022-07-29T16:54:08;13.25;;;7.60;;
17997;SDS011;9124;48.144;17.098;2022-07-29T16:57:45;7.30;;;5.22;;
17997;SDS011;9124;48.144;17.098;2022-07-29T17:01:22;5.57;;;4.82;;
17997;SDS011;9124;48.144;17.098;2022-07-29T17:04:59;6.55;;;5.75;;
17997;SDS011;9124;48.144;17.098;2022-07-29T17:08:36;7.28;;;5.25;;
17997;SDS011;9124;48.144;17.098;2022-07-29T17:12:13;5.72;;;5.35;;
17997;SDS011;9124;48.144;17.098;2022-07-29T17:15:50;8.30;;;5.70;;
17997;SDS011;9124;48.144;17.098;2022-07-29T17:19:27;14.02;;;9.75;;
17997;SDS011;9124;48.144;17.098;2022-07-29T17:23:06;10.63;;;5.63;;
17997;SDS011;9124;48.144;17.098;2022-07-29T17:26:43;5.68;;;5.28;;
17997;SDS011;9124;48.144;17.098;2022-07-29T17:30:20;6.00;;;5.47;;
17997;SDS011;9124;48.144;17.098;2022-07-29T17:33:58;7.35;;;5.15;;
17997;SDS011;9124;48.144;17.098;2022-07-29T17:37:34;5.93;;;5.35;;
17997;SDS011;9124;48.144;17.098;2022-07-29T17:41:12;6.32;;;5.03;;
17997;SDS011;9124;48.144;17.098;2022-07-29T17:44:48;6.28;;;5.03;;
17997;SDS011;9124;48.144;17.098;2022-07-29T17:48:26;8.30;;;4.97;;
17997;SDS011;9124;48.144;17.098;2022-07-29T17:52:03;6.05;;;5.50;;
17997;SDS011;9124;48.144;17.098;2022-07-29T17:55:40;7.70;;;5.45;;
17997;SDS011;9124;48.144;17.098;2022-07-29T17:59:20;6.40;;;5.82;;
17997;SDS011;9124;48.144;17.098;2022-07-29T18:02:57;7.20;;;5.65;;
17997;SDS011;9124;48.144;17.098;2022-07-29T18:06:33;5.90;;;5.50;;
17997;SDS011;9124;48.144;17.098;2022-07-29T18:10:11;5.05;;;4.68;;
17997;SDS011;9124;48.144;17.098;2022-07-29T18:13:47;8.00;;;5.90;;
17997;SDS011;9124;48.144;17.098;2022-07-29T18:17:24;6.72;;;5.25;;
17997;SDS011;9124;48.144;17.098;2022-07-29T18:21:01;8.50;;;5.55;;
17997;SDS011;9124;48.144;17.098;2022-07-29T18:24:39;6.63;;;5.22;;
17997;SDS011;9124;48.144;17.098;2022-07-29T18:28:16;6.05;;;5.40;;
17997;SDS011;9124;48.144;17.098;2022-07-29T18:31:53;9.73;;;5.45;;
17997;SDS011;9124;48.144;17.098;2022-07-29T18:35:31;11.70;;;6.13;;
17997;SDS011;9124;48.144;17.098;2022-07-29T18:39:08;9.32;;;5.75;;
17997;SDS011;9124;48.144;17.098;2022-07-29T18:42:44;6.97;;;5.22;;
17997;SDS011;9124;48.144;17.098;2022-07-29T18:46:23;5.80;;;5.40;;
17997;SDS011;9124;48.144;17.098;2022-07-29T18:49:59;6.28;;;5.45;;
17997;SDS011;9124;48.144;17.098;2022-07-29T18:53:36;6.40;;;5.85;;
17997;SDS011;9124;48.144;17.098;2022-07-29T18:57:13;7.13;;;6.32;;
17997;SDS011;9124;48.144;17.098;2022-07-29T19:00:50;6.40;;;5.88;;
17997;SDS011;9124;48.144;17.098;2022-07-29T19:04:26;8.35;;;6.00;;
17997;SDS011;9124;48.144;17.098;2022-07-29T19:08:04;9.18;;;7.00;;
17997;SDS011;9124;48.144;17.098;2022-07-29T19:11:41;8.18;;;6.55;;
17997;SDS011;9124;48.144;17.098;2022-07-29T19:15:18;8.32;;;6.80;;
17997;SDS011;9124;48.144;17.098;2022-07-29T19:18:54;6.80;;;6.20;;
17997;SDS011;9124;48.144;17.098;2022-07-29T19:22:31;6.90;;;6.25;;
17997;SDS011;9124;48.144;17.098;2022-07-29T19:26:08;11.52;;;6.00;;
17997;SDS011;9124;48.144;17.098;2022-07-29T19:29:45;10.68;;;7.75;;
17997;SDS011;9124;48.144;17.098;2022-07-29T19:33:22;8.15;;;6.75;;
17997;SDS011;9124;48.144;17.098;2022-07-29T19:36:59;7.22;;;6.60;;
17997;SDS011;9124;48.144;17.098;2022-07-29T19:40:37;9.05;;;8.48;;
17997;SDS011;9124;48.144;17.098;2022-07-29T19:44:14;13.63;;;9.32;;
17997;SDS011;9124;48.144;17.098;2022-07-29T19:47:51;8.75;;;7.93;;
17997;SDS011;9124;48.144;17.098;2022-07-29T19:51:29;8.18;;;7.53;;
17997;SDS011;9124;48.144;17.098;2022-07-29T19:55:06;9.40;;;7.45;;
17997;SDS011;9124;48.144;17.098;2022-07-29T19:58:43;8.20;;;7.07;;
17997;SDS011;9124;48.144;17.098;2022-07-29T20:02:20;7.68;;;6.68;;
17997;SDS011;9124;48.144;17.098;2022-07-29T20:05:57;11.32;;;7.50;;
17997;SDS011;9124;48.144;17.098;2022-07-29T20:09:35;10.25;;;8.27;;
17997;SDS011;9124;48.144;17.098;2022-07-29T20:13:12;8.93;;;7.68;;
17997;SDS011;9124;48.144;17.098;2022-07-29T20:16:49;9.60;;;7.90;;
17997;SDS011;9124;48.144;17.098;2022-07-29T20:20:26;10.35;;;9.45;;
17997;SDS011;9124;48.144;17.098;2022-07-29T20:24:05;9.77;;;8.93;;
17997;SDS011;9124;48.144;17.098;2022-07-29T20:27:41;10.60;;;8.90;;
17997;SDS011;9124;48.144;17.098;2022-07-29T20:31:18;7.63;;;7.13;;
17997;SDS011;9124;48.144;17.098;2022-07-29T20:34:56;6.22;;;5.72;;
17997;SDS011;9124;48.144;17.098;2022-07-29T20:38:33;6.30;;;5.70;;
17997;SDS011;9124;48.144;17.098;2022-07-29T20:42:09;6.60;;;6.10;;
17997;SDS011;9124;48.144;17.098;2022-07-29T20:45:46;7.10;;;5.38;;
17997;SDS011;9124;48.144;17.098;2022-07-29T20:49:23;6.47;;;5.07;;
17997;SDS011;9124;48.144;17.098;2022-07-29T20:53:00;6.03;;;4.65;;
17997;SDS011;9124;48.144;17.098;2022-07-29T20:56:36;6.97;;;5.15;;
17997;SDS011;9124;48.144;17.098;2022-07-29T21:00:14;5.68;;;5.05;;
17997;SDS011;9124;48.144;17.098;2022-07-29T21:03:51;10.30;;;4.75;;
17997;SDS011;9124;48.144;17.098;2022-07-29T21:07:27;5.60;;;5.13;;
17997;SDS011;9124;48.144;17.098;2022-07-29T21:11:04;5.13;;;4.72;;
17997;SDS011;9124;48.144;17.098;2022-07-29T21:14:41;8.35;;;5.25;;
17997;SDS011;9124;48.144;17.098;2022-07-29T21:18:24;5.43;;;5.03;;
17997;SDS011;9124;48.144;17.098;2022-07-29T21:22:07;5.60;;;5.10;;
17997;SDS011;9124;48.144;17.098;2022-07-29T21:25:44;7.00;;;5.63;;
17997;SDS011;9124;48.144;17.098;2022-07-29T21:29:21;7.50;;;6.85;;
17997;SDS011;9124;48.144;17.098;2022-07-29T21:32:58;8.27;;;6.15;;
17997;SDS011;9124;48.144;17.098;2022-07-29T21:36:35;7.03;;;6.57;;
17997;SDS011;9124;48.144;17.098;2022-07-29T21:40:12;6.30;;;5.70;;
17997;SDS011;9124;48.144;17.098;2022-07-29T21:43:49;6.03;;;5.63;;
17997;SDS011;9124;48.144;17.098;2022-07-29T21:47:26;5.45;;;4.95;;
17997;SDS011;9124;48.144;17.098;2022-07-29T21:51:03;5.80;;;5.30;;
17997;SDS011;9124;48.144;17.098;2022-07-29T21:54:40;7.38;;;6.53;;
17997;SDS011;9124;48.144;17.098;2022-07-29T21:58:17;6.82;;;6.15;;
17997;SDS011;9124;48.144;17.098;2022-07-29T22:01:54;5.70;;;5.30;;
17997;SDS011;9124;48.144;17.098;2022-07-29T22:05:30;6.55;;;6.07;;
17997;SDS011;9124;48.144;17.098;2022-07-29T22:09:07;6.15;;;5.65;;
17997;SDS011;9124;48.144;17.098;2022-07-29T22:12:44;6.93;;;6.22;;
17997;SDS011;9124;48.144;17.098;2022-07-29T22:16:21;9.55;;;8.52;;
17997;SDS011;9124;48.144;17.098;2022-07-29T22:19:57;9.82;;;9.13;;
17997;SDS011;9124;48.144;17.098;2022-07-29T22:23:35;11.95;;;11.10;;
17997;SDS011;9124;48.144;17.098;2022-07-29T22:27:12;11.23;;;10.15;;
17997;SDS011;9124;48.144;17.098;2022-07-29T22:30:49;12.63;;;11.45;;
17997;SDS011;9124;48.144;17.098;2022-07-29T22:34:25;11.55;;;10.65;;
17997;SDS011;9124;48.144;17.098;2022-07-29T22:38:02;11.38;;;10.52;;